Time,TemperatureF,DewpointF,PressureIn,WindDirection,WindDirectionDegrees,WindSpeedMPH,WindSpeedGustMPH,Humidity,HourlyPrecipIn,Conditions,Clouds,dailyrainin,SolarRadiationWatts/m^2,SoftwareType,DateUTC
2013-04-12 06:55:00,76.7,72.9,29.84,NNW,347,0.0,8.0,88,0.00,,,0.00,0,Wunderground v.1.15,2013-04-12 10:55:00,
2013-04-12 07:00:00,76.8,73.0,29.84,NNW,347,0.0,2.0,88,0.00,,,0.00,0,Wunderground v.1.15,2013-04-12 11:00:00,
2013-04-12 07:05:00,76.8,73.0,29.84,NNE,28,2.0,2.0,88,0.00,,,0.00,0,Wunderground v.1.15,2013-04-12 11:05:00,
2013-04-12 07:10:00,76.8,73.0,29.84,North,353,1.0,1.0,88,0.00,,,0.00,9,Wunderground v.1.15,2013-04-12 11:10:00,
2013-04-12 07:20:00,76.8,73.0,29.84,NW,316,1.0,1.0,88,0.00,,,0.00,14,Wunderground v.1.15,2013-04-12 11:20:00,
2013-04-12 07:30:00,77.0,73.2,29.85,NNW,339,0.0,0.0,88,0.00,,,0.00,26,Wunderground v.1.15,2013-04-12 11:30:00,
2013-04-12 07:35:00,77.0,73.2,29.85,NNW,335,1.0,1.0,88,0.00,,,0.00,42,Wunderground v.1.15,2013-04-12 11:35:00,
2013-04-12 07:40:00,77.2,73.4,29.85,NNW,344,0.0,0.0,88,0.00,,,0.00,74,Wunderground v.1.15,2013-04-12 11:40:00,
2013-04-12 07:45:00,77.4,73.2,29.85,North,349,1.0,3.0,87,0.00,,,0.00,67,Wunderground v.1.15,2013-04-12 11:45:00,
2013-04-12 07:50:00,77.4,73.2,29.85,NNW,342,2.0,2.0,87,0.00,,,0.00,67,Wunderground v.1.15,2013-04-12 11:50:00,
2013-04-12 07:55:00,77.6,73.4,29.85,NNW,347,2.0,2.0,87,0.00,,,0.00,102,Wunderground v.1.15,2013-04-12 11:55:00,
2013-04-12 08:00:00,77.7,73.5,29.85,NNW,347,0.0,0.0,87,0.00,,,0.00,74,Wunderground v.1.15,2013-04-12 12:00:00,
2013-04-12 08:10:00,77.9,73.7,29.85,North,359,1.0,1.0,87,0.00,,,0.00,83,Wunderground v.1.15,2013-04-12 12:10:00,
2013-04-12 08:15:00,77.9,73.4,29.85,NNW,343,1.0,1.0,86,0.00,,,0.00,106,Wunderground v.1.15,2013-04-12 12:15:00,
2013-04-12 08:25:00,78.3,73.8,29.85,NW,319,1.0,2.0,86,0.00,,,0.00,102,Wunderground v.1.15,2013-04-12 12:25:00,
2013-04-12 08:30:00,78.6,74.1,29.86,NW,326,1.0,1.0,86,0.00,,,0.00,313,Wunderground v.1.15,2013-04-12 12:30:00,
2013-04-12 08:35:00,79.2,74.3,29.86,NNW,342,1.0,3.0,85,0.00,,,0.00,282,Wunderground v.1.15,2013-04-12 12:35:00,
2013-04-12 08:45:00,79.6,74.3,29.86,NW,326,3.0,4.0,84,0.00,,,0.00,107,Wunderground v.1.15,2013-04-12 12:45:00,
2013-04-12 08:50:00,79.8,74.2,29.86,North,359,3.0,4.0,83,0.00,,,0.00,355,Wunderground v.1.15,2013-04-12 12:50:00,
2013-04-12 08:55:00,80.3,74.7,29.86,North,4,2.0,2.0,83,0.00,,,0.00,292,Wunderground v.1.15,2013-04-12 12:55:00,
2013-04-12 09:00:00,80.5,74.5,29.86,North,356,3.0,6.0,82,0.00,,,0.00,248,Wunderground v.1.15,2013-04-12 13:00:00,
2013-04-12 09:10:00,80.7,74.3,29.86,NNE,25,2.0,2.0,81,0.00,,,0.00,208,Wunderground v.1.15,2013-04-12 13:10:00,
2013-04-12 09:15:00,80.9,74.5,29.86,NW,308,1.0,3.0,81,0.00,,,0.00,185,Wunderground v.1.15,2013-04-12 13:15:00,
2013-04-12 09:20:00,81.2,74.4,29.86,NNW,337,1.0,1.0,80,0.00,,,0.00,181,Wunderground v.1.15,2013-04-12 13:20:00,
2013-04-12 09:25:00,81.8,74.6,29.86,NW,316,1.0,1.0,79,0.00,,,0.00,421,Wunderground v.1.15,2013-04-12 13:25:00,
2013-04-12 09:35:00,82.6,74.3,29.86,North,0,2.0,3.0,76,0.00,,,0.00,509,Wunderground v.1.15,2013-04-12 13:35:00,
2013-04-12 09:40:00,83.0,74.6,29.86,North,0,2.0,6.0,76,0.00,,,0.00,477,Wunderground v.1.15,2013-04-12 13:40:00,
2013-04-12 09:45:00,83.6,74.8,29.86,NNW,332,3.0,6.0,75,0.00,,,0.00,542,Wunderground v.1.15,2013-04-12 13:45:00,
2013-04-12 09:50:00,83.8,74.2,29.86,North,0,2.0,2.0,73,0.00,,,0.00,304,Wunderground v.1.15,2013-04-12 13:50:00,
2013-04-12 09:55:00,83.6,74.0,29.86,NNE,20,3.0,6.0,73,0.00,,,0.00,236,Wunderground v.1.15,2013-04-12 13:55:00,
2013-04-12 10:00:00,83.8,74.2,29.86,North,0,4.0,4.0,73,0.00,,,0.00,628,Wunderground v.1.15,2013-04-12 14:00:00,
2013-04-12 10:10:00,84.9,74.4,29.86,NW,325,3.0,3.0,71,0.00,,,0.00,644,Wunderground v.1.15,2013-04-12 14:10:00,
2013-04-12 10:15:00,84.7,73.8,29.86,NNW,342,3.0,7.0,70,0.00,,,0.00,289,Wunderground v.1.15,2013-04-12 14:15:00,
2013-04-12 10:20:00,84.7,74.3,29.86,North,3,4.0,6.0,71,0.00,,,0.00,232,Wunderground v.1.15,2013-04-12 14:20:00,
2013-04-12 10:25:00,84.9,74.0,29.86,NW,315,4.0,7.0,70,0.00,,,0.00,232,Wunderground v.1.15,2013-04-12 14:25:00,
2013-04-12 10:35:00,85.7,74.8,29.85,North,0,4.0,6.0,70,0.00,,,0.00,809,Wunderground v.1.15,2013-04-12 14:35:00,
2013-04-12 10:40:00,86.1,74.3,29.85,North,0,5.0,5.0,68,0.00,,,0.00,417,Wunderground v.1.15,2013-04-12 14:40:00,
2013-04-12 10:45:00,86.1,74.3,29.85,NNW,347,4.0,5.0,68,0.00,,,0.00,788,Wunderground v.1.15,2013-04-12 14:45:00,
2013-04-12 10:50:00,85.9,74.1,29.85,North,4,4.0,6.0,68,0.00,,,0.00,755,Wunderground v.1.15,2013-04-12 14:50:00,
2013-04-12 10:55:00,85.9,74.5,29.85,NNW,344,5.0,6.0,69,0.00,,,0.00,809,Wunderground v.1.15,2013-04-12 14:55:00,
2013-04-12 11:00:00,86.1,74.3,29.86,NNW,328,5.0,5.0,68,0.00,,,0.00,878,Wunderground v.1.15,2013-04-12 15:00:00,
2013-04-12 11:10:00,86.3,74.5,29.86,North,3,4.0,4.0,68,0.00,,,0.00,859,Wunderground v.1.15,2013-04-12 15:10:00,
2013-04-12 11:15:00,86.7,74.4,29.86,NNW,336,4.0,7.0,67,0.00,,,0.00,259,Wunderground v.1.15,2013-04-12 15:15:00,
2013-04-12 11:20:00,86.5,74.7,29.86,North,359,5.0,5.0,68,0.00,,,0.00,1024,Wunderground v.1.15,2013-04-12 15:20:00,
2013-04-12 11:30:00,87.4,74.2,29.86,NNE,28,6.0,12.0,65,0.00,,,0.00,267,Wunderground v.1.15,2013-04-12 15:30:00,
2013-04-12 11:35:00,86.7,74.0,29.86,North,357,5.0,12.0,66,0.00,,,0.00,296,Wunderground v.1.15,2013-04-12 15:35:00,
2013-04-12 13:45:00,90.7,75.4,29.83,NNW,347,4.0,4.0,61,0.00,,,0.02,985,Wunderground v.1.15,2013-04-12 17:45:00,
2013-04-12 13:50:00,90.3,75.0,29.83,NW,315,5.0,9.0,61,0.00,,,0.02,318,Wunderground v.1.15,2013-04-12 17:50:00,
2013-04-12 14:00:00,89.3,74.6,29.82,NNW,339,5.0,5.0,62,0.00,,,0.02,297,Wunderground v.1.15,2013-04-12 18:00:00,
2013-04-12 14:10:00,89.3,74.6,29.82,NNW,328,6.0,6.0,62,0.00,,,0.02,998,Wunderground v.1.15,2013-04-12 18:10:00,
2013-04-12 14:25:00,91.6,74.7,29.82,North,1,5.0,14.0,58,0.00,,,0.02,980,Wunderground v.1.15,2013-04-12 18:25:00,
2013-04-12 14:30:00,91.8,74.9,29.81,NNW,344,4.0,5.0,58,0.00,,,0.02,1019,Wunderground v.1.15,2013-04-12 18:30:00,
2013-04-12 15:30:00,90.3,74.0,29.79,NNE,24,6.0,11.0,59,0.00,,,0.02,860,Wunderground v.1.15,2013-04-12 19:30:00,
2013-04-12 15:35:00,90.3,75.0,29.79,NNW,336,7.0,11.0,61,0.00,,,0.02,869,Wunderground v.1.15,2013-04-12 19:35:00,
2013-04-12 15:40:00,90.5,74.2,29.79,North,0,6.0,7.0,59,0.00,,,0.02,867,Wunderground v.1.15,2013-04-12 19:40:00,
2013-04-12 15:45:00,90.7,74.4,29.79,North,0,6.0,7.0,59,0.00,,,0.02,830,Wunderground v.1.15,2013-04-12 19:45:00,
2013-04-12 15:50:00,90.7,74.4,29.79,North,349,6.0,6.0,59,0.00,,,0.02,257,Wunderground v.1.15,2013-04-12 19:50:00,
2013-04-12 15:55:00,90.3,74.0,29.79,North,349,5.0,6.0,59,0.00,,,0.02,267,Wunderground v.1.15,2013-04-12 19:55:00,
2013-04-12 16:00:00,90.1,73.8,29.79,North,4,6.0,6.0,59,0.00,,,0.02,795,Wunderground v.1.15,2013-04-12 20:00:00,
2013-04-12 16:10:00,89.7,74.0,29.79,NNW,335,6.0,6.0,60,0.00,,,0.02,764,Wunderground v.1.15,2013-04-12 20:10:00,
2013-04-12 16:15:00,89.3,73.6,29.78,North,0,6.0,6.0,60,0.00,,,0.02,155,Wunderground v.1.15,2013-04-12 20:15:00,
2013-04-12 16:20:00,88.8,74.1,29.78,North,0,6.0,11.0,62,0.00,,,0.02,699,Wunderground v.1.15,2013-04-12 20:20:00,
2013-04-12 16:25:00,89.0,74.3,29.78,NW,318,6.0,11.0,62,0.00,,,0.02,667,Wunderground v.1.15,2013-04-12 20:25:00,
2013-04-12 16:30:00,89.0,73.8,29.79,NNW,330,5.0,5.0,61,0.00,,,0.02,648,Wunderground v.1.15,2013-04-12 20:30:00,
2013-04-12 16:35:00,89.0,73.8,29.79,NE,40,5.0,11.0,61,0.00,,,0.02,630,Wunderground v.1.15,2013-04-12 20:35:00,
2013-04-12 16:40:00,88.8,73.6,29.79,NNW,342,6.0,8.0,61,0.00,,,0.02,595,Wunderground v.1.15,2013-04-12 20:40:00,
2013-04-12 16:50:00,88.8,74.1,29.79,North,0,5.0,6.0,62,0.00,,,0.02,540,Wunderground v.1.15,2013-04-12 20:50:00,
2013-04-12 17:00:00,88.2,73.5,29.79,NW,320,5.0,6.0,62,0.00,,,0.02,531,Wunderground v.1.15,2013-04-12 21:00:00,
2013-04-12 17:10:00,88.0,73.8,29.79,NNW,342,5.0,5.0,63,0.00,,,0.02,472,Wunderground v.1.15,2013-04-12 21:10:00,
2013-04-12 17:15:00,88.0,73.3,29.79,NW,325,4.0,6.0,62,0.00,,,0.02,109,Wunderground v.1.15,2013-04-12 21:15:00,
2013-04-12 17:25:00,87.6,73.4,29.79,NW,311,5.0,10.0,63,0.00,,,0.02,413,Wunderground v.1.15,2013-04-12 21:25:00,
2013-04-12 17:30:00,87.4,73.3,29.79,NNW,343,6.0,6.0,63,0.00,,,0.02,405,Wunderground v.1.15,2013-04-12 21:30:00,
2013-04-12 17:35:00,87.2,73.1,29.79,North,0,6.0,7.0,63,0.00,,,0.02,378,Wunderground v.1.15,2013-04-12 21:35:00,
2013-04-12 17:40:00,87.0,73.3,29.79,NNE,13,6.0,6.0,64,0.00,,,0.02,371,Wunderground v.1.15,2013-04-12 21:40:00,
2013-04-12 17:45:00,87.0,73.3,29.79,North,8,6.0,6.0,64,0.00,,,0.02,354,Wunderground v.1.15,2013-04-12 21:45:00,
2013-04-12 17:50:00,87.2,73.5,29.79,North,349,5.0,6.0,64,0.00,,,0.02,331,Wunderground v.1.15,2013-04-12 21:50:00,
2013-04-12 17:55:00,87.2,73.5,29.79,North,356,4.0,6.0,64,0.00,,,0.02,317,Wunderground v.1.15,2013-04-12 21:55:00,
2013-04-12 18:00:00,87.2,73.1,29.78,NW,316,4.0,4.0,63,0.00,,,0.02,303,Wunderground v.1.15,2013-04-12 22:00:00,
2013-04-12 18:10:00,86.7,73.1,29.78,North,0,4.0,5.0,64,0.00,,,0.02,266,Wunderground v.1.15,2013-04-12 22:10:00,
2013-04-12 18:15:00,86.5,72.9,29.79,NNE,23,4.0,5.0,64,0.00,,,0.02,253,Wunderground v.1.15,2013-04-12 22:15:00,
2013-04-12 18:20:00,86.5,72.9,29.79,NNW,340,2.0,6.0,64,0.00,,,0.02,229,Wunderground v.1.15,2013-04-12 22:20:00,
2013-04-12 18:30:00,86.1,72.5,29.79,NNE,21,5.0,6.0,64,0.00,,,0.02,183,Wunderground v.1.15,2013-04-12 22:30:00,
2013-04-12 18:35:00,85.9,72.8,29.79,NNW,336,5.0,6.0,65,0.00,,,0.02,172,Wunderground v.1.15,2013-04-12 22:35:00,
2013-04-12 18:40:00,85.7,72.6,29.79,NNW,347,4.0,4.0,65,0.00,,,0.02,174,Wunderground v.1.15,2013-04-12 22:40:00,
2013-04-12 18:45:00,85.7,73.0,29.80,North,1,3.0,4.0,66,0.00,,,0.02,148,Wunderground v.1.15,2013-04-12 22:45:00,
2013-04-12 18:50:00,85.5,72.8,29.80,NNE,25,3.0,3.0,66,0.00,,,0.02,128,Wunderground v.1.15,2013-04-12 22:50:00,
2013-04-12 18:55:00,85.3,72.6,29.80,North,0,4.0,5.0,66,0.00,,,0.02,93,Wunderground v.1.15,2013-04-12 22:55:00,
2013-04-12 19:00:00,85.1,72.9,29.80,NE,35,4.0,4.0,67,0.00,,,0.02,83,Wunderground v.1.15,2013-04-12 23:00:00,
2013-04-12 19:10:00,84.5,72.8,29.80,North,0,3.0,3.0,68,0.00,,,0.02,30,Wunderground v.1.15,2013-04-12 23:10:00,
2013-04-12 19:15:00,84.0,72.7,29.81,NNW,330,4.0,8.0,69,0.00,,,0.02,25,Wunderground v.1.15,2013-04-12 23:15:00,
2013-04-12 19:20:00,83.8,73.0,29.81,North,6,4.0,4.0,70,0.00,,,0.02,18,Wunderground v.1.15,2013-04-12 23:20:00,
2013-04-12 19:25:00,83.4,73.0,29.81,North,3,3.0,10.0,71,0.00,,,0.02,14,Wunderground v.1.15,2013-04-12 23:25:00,
2013-04-12 19:30:00,83.2,72.8,29.81,North,349,5.0,5.0,71,0.00,,,0.02,12,Wunderground v.1.15,2013-04-12 23:30:00,
2013-04-12 19:40:00,82.8,72.8,29.81,North,354,2.0,6.0,72,0.00,,,0.02,0,Wunderground v.1.15,2013-04-12 23:40:00,
2013-04-12 19:50:00,82.4,72.9,29.82,NNE,14,3.0,3.0,73,0.00,,,0.02,0,Wunderground v.1.15,2013-04-12 23:50:00,
2013-04-12 19:55:00,82.2,73.1,29.82,NE,42,3.0,3.0,74,0.00,,,0.02,0,Wunderground v.1.15,2013-04-12 23:55:00,
2013-04-12 20:00:00,82.0,72.9,29.82,North,4,2.0,2.0,74,0.00,,,0.02,0,Wunderground v.1.15,2013-04-13 00:00:00,
2013-04-12 20:10:00,81.8,73.1,29.82,NNE,14,3.0,3.0,75,0.00,,,0.02,0,Wunderground v.1.15,2013-04-13 00:10:00,
2013-04-12 20:15:00,81.6,72.9,29.83,North,356,2.0,3.0,75,0.00,,,0.02,0,Wunderground v.1.15,2013-04-13 00:15:00,
2013-04-12 20:25:00,81.4,73.1,29.83,North,353,2.0,2.0,76,0.00,,,0.02,0,Wunderground v.1.15,2013-04-13 00:25:00,
2013-04-12 20:30:00,81.2,72.9,29.83,North,357,2.0,2.0,76,0.00,,,0.02,0,Wunderground v.1.15,2013-04-13 00:30:00,
2013-04-12 20:35:00,81.1,72.8,29.83,North,350,1.0,2.0,76,0.00,,,0.02,0,Wunderground v.1.15,2013-04-13 00:35:00,
2013-04-12 20:40:00,81.1,72.8,29.83,North,349,1.0,2.0,76,0.00,,,0.02,0,Wunderground v.1.15,2013-04-13 00:40:00,
2013-04-12 20:45:00,80.9,72.6,29.84,North,11,1.0,2.0,76,0.00,,,0.02,0,Wunderground v.1.15,2013-04-13 00:45:00,
2013-04-12 20:54:00,80.7,72.8,29.84,North,350,1.0,3.0,77,0.00,,,0.02,0,Wunderground v.1.15,2013-04-13 00:54:00,
2013-04-12 21:00:00,80.5,73.0,29.84,NE,44,1.0,1.0,78,0.00,,,0.02,0,Wunderground v.1.15,2013-04-13 01:00:00,
2013-04-12 21:10:00,80.3,72.8,29.84,North,1,1.0,3.0,78,0.00,,,0.02,0,Wunderground v.1.15,2013-04-13 01:10:00,
2013-04-12 21:15:00,80.3,73.2,29.85,NE,40,2.0,3.0,79,0.00,,,0.02,0,Wunderground v.1.15,2013-04-13 01:15:00,
2013-04-12 21:25:00,80.1,73.0,29.85,NNE,13,1.0,4.0,79,0.00,,,0.02,0,Wunderground v.1.15,2013-04-13 01:25:00,
2013-04-12 21:30:00,80.1,73.0,29.85,North,4,0.0,2.0,79,0.00,,,0.02,0,Wunderground v.1.15,2013-04-13 01:30:00,
2013-04-12 21:35:00,79.9,73.2,29.85,North,1,0.0,2.0,80,0.00,,,0.02,0,Wunderground v.1.15,2013-04-13 01:35:00,